Time;durP1;ratioP1;P1;durP2;ratioP2;P2;SDS_P1;SDS_P2;PMS_P1;PMS_P2;Temp;Humidity;BMP_temperature;BMP_pressure;BME280_temperature;BME280_humidity;BME280_pressure;Samples;Min_cycle;Max_cycle;Signal;HPM_P1;HPM_P2
2022/11/16 00:01:25;;;;;;;13.10;11.70;;;;;;;10.97;100.00;99751.69;4988853;28;20501;-77
2022/11/16 00:03:53;;;;;;;15.40;11.80;;;;;;;10.97;100.00;99736.72;4987977;28;20730;-80
2022/11/16 00:06:20;;;;;;;13.70;12.40;;;;;;;10.98;100.00;99742.81;4986710;28;20030;-79
2022/11/16 00:11:39;;;;;;;13.38;11.98;;;;;;;10.95;100.00;99751.00;4989407;28;20219;-79
2022/11/16 00:14:05;;;;;;;13.48;12.13;;;;;;;10.97;100.00;99756.94;5003772;28;20487;-79
2022/11/16 00:16:34;;;;;;;13.13;11.93;;;;;;;10.97;100.00;99756.94;4986755;28;20124;-77
2022/11/16 00:19:02;;;;;;;14.48;12.48;;;;;;;10.95;100.00;99758.91;4988836;28;20022;-77
2022/11/16 00:21:28;;;;;;;13.60;12.27;;;;;;;10.94;100.00;99746.72;4988964;28;20426;-78
2022/11/16 00:23:53;;;;;;;14.57;13.07;;;;;;;10.95;100.00;99753.63;4977991;28;20034;-78
2022/11/16 00:26:19;;;;;;;14.20;12.57;;;;;;;10.94;100.00;99747.53;4977864;28;20386;-78
2022/11/16 00:28:46;;;;;;;14.48;12.90;;;;;;;10.96;100.00;99752.66;4988659;28;20034;-78
2022/11/16 00:31:12;;;;;;;14.40;12.85;;;;;;;10.97;100.00;99731.47;4988742;28;20028;-78
2022/11/16 00:33:38;;;;;;;13.88;12.55;;;;;;;10.98;100.00;99732.28;4987470;28;20033;-78
2022/11/16 00:36:06;;;;;;;14.25;12.73;;;;;;;10.97;100.00;99730.63;4987792;28;20113;-78
2022/11/16 00:38:31;;;;;;;14.43;12.77;;;;;;;10.97;100.00;99715.66;4990082;28;20050;-78
2022/11/16 00:40:57;;;;;;;14.65;12.75;;;;;;;10.97;100.00;99714.84;4989087;28;20549;-78
2022/11/16 00:43:22;;;;;;;13.63;12.32;;;;;;;10.95;100.00;99717.63;4988353;28;20034;-80
2022/11/16 00:45:48;;;;;;;13.43;12.13;;;;;;;10.95;100.00;99717.63;4990211;28;20038;-79
2022/11/16 00:48:13;;;;;;;13.98;12.55;;;;;;;10.96;100.00;99731.59;4990100;28;20045;-78
2022/11/16 00:50:39;;;;;;;15.43;12.70;;;;;;;10.94;100.00;99742.28;5000144;28;20029;-78
2022/11/16 00:53:06;;;;;;;14.00;12.63;;;;;;;10.93;100.00;99737.16;4992346;28;20061;-78
2022/11/16 00:55:34;;;;;;;13.38;12.07;;;;;;;10.93;100.00;99735.34;4992846;28;20097;-78
2022/11/16 00:57:59;;;;;;;13.70;12.10;;;;;;;10.93;100.00;99730.09;4994305;28;20037;-79
2022/11/16 01:00:25;;;;;;;13.93;12.48;;;;;;;10.93;100.00;99740.63;4990472;28;20387;-80
2022/11/16 01:02:53;;;;;;;13.45;12.05;;;;;;;10.91;100.00;99726.78;4993092;28;20042;-78
2022/11/16 01:05:19;;;;;;;13.07;11.65;;;;;;;10.93;100.00;99721.38;4991552;28;20034;-79
2022/11/16 01:07:45;;;;;;;13.70;12.40;;;;;;;10.93;100.00;99729.25;4989928;28;20104;-79
2022/11/16 01:10:12;;;;;;;13.35;12.02;;;;;;;10.96;100.00;99728.97;4991010;28;20483;-80
2022/11/16 01:12:38;;;;;;;13.70;11.93;;;;;;;10.97;100.00;99712.22;4992028;28;20528;-80
2022/11/16 01:15:07;;;;;;;12.80;11.50;;;;;;;10.97;100.00;99707.78;4992228;28;20037;-79
2022/11/16 01:17:33;;;;;;;12.98;11.68;;;;;;;10.97;100.00;99720.09;4990891;28;20084;-79
2022/11/16 01:19:58;;;;;;;12.40;11.20;;;;;;;10.97;100.00;99720.94;4991428;28;20426;-80
2022/11/16 01:22:24;;;;;;;12.50;11.20;;;;;;;10.97;100.00;99705.13;4990902;28;20033;-80
2022/11/16 01:24:49;;;;;;;12.25;10.95;;;;;;;10.97;100.00;99710.41;4990630;28;20054;-80
2022/11/16 01:27:14;;;;;;;11.60;10.50;;;;;;;10.97;100.00;99702.50;4992106;28;20018;-80
2022/11/16 01:29:40;;;;;;;12.90;11.60;;;;;;;10.97;100.00;99710.41;4989464;28;20050;-80
2022/11/16 01:32:05;;;;;;;12.05;10.85;;;;;;;10.99;100.00;99708.44;5006414;28;20040;-79
2022/11/16 01:34:31;;;;;;;13.15;11.50;;;;;;;10.97;100.00;99699.88;4992160;28;20105;-80
2022/11/16 01:36:56;;;;;;;11.95;10.65;;;;;;;10.99;100.00;99700.56;4991733;28;20038;-80
2022/11/16 01:39:22;;;;;;;12.30;10.30;;;;;;;10.99;100.00;99699.72;4989986;28;20061;-80
2022/11/16 01:41:48;;;;;;;11.73;10.55;;;;;;;11.01;100.00;99699.59;4973399;28;20082;-80
2022/11/16 01:44:13;;;;;;;11.73;10.52;;;;;;;11.03;100.00;99692.38;4973631;28;20030;-80
2022/11/16 01:46:38;;;;;;;11.82;10.63;;;;;;;11.04;100.00;99705.38;4989619;28;20034;-80
2022/11/16 01:49:14;;;;;;;12.88;10.88;;;;;;;11.06;100.00;99698.16;4992321;28;20037;-80
2022/11/16 01:51:45;;;;;;;12.27;11.05;;;;;;;11.07;100.00;99694.56;5005688;28;20030;-80
2022/11/16 01:54:12;;;;;;;12.38;11.15;;;;;;;11.07;100.00;99699.00;4979013;28;20027;-81
2022/11/16 01:56:40;;;;;;;13.52;11.45;;;;;;;11.06;100.00;99702.59;4990531;28;20663;-80
2022/11/16 01:59:06;;;;;;;13.30;11.90;;;;;;;11.04;100.00;99708.03;4991517;28;20026;-80
2022/11/16 02:01:31;;;;;;;13.45;12.05;;;;;;;11.05;100.00;99701.78;4990942;28;20141;-81
2022/11/16 02:03:58;;;;;;;13.73;12.32;;;;;;;11.07;100.00;99697.19;4991423;28;20117;-81
2022/11/16 02:06:26;;;;;;;12.82;11.40;;;;;;;11.06;100.00;99700.81;4991496;28;20022;-80
2022/11/16 02:12:42;;;;;;;13.40;11.77;;;;;;;11.08;100.00;99695.41;4992128;28;20073;-80
2022/11/16 02:15:32;;;;;;;12.65;11.45;;;;;;;11.09;100.00;99697.06;4986415;28;20503;-80
2022/11/16 02:18:13;;;;;;;13.38;11.98;;;;;;;11.07;100.00;99691.94;4988691;28;20418;-80
2022/11/16 02:20:57;;;;;;;13.10;11.80;;;;;;;11.07;100.00;99688.47;4989707;28;20427;-79
2022/11/16 02:23:50;;;;;;;12.70;11.43;;;;;;;11.10;100.00;99699.53;4990381;28;20113;-80
2022/11/16 02:26:33;;;;;;;;;;;;;;;11.15;100.00;99685.94;4991518;28;20022;-80
2022/11/16 02:29:22;;;;;;;12.18;10.98;;;;;;;11.11;100.00;99690.66;4989693;28;19953;-81
2022/11/16 02:32:03;;;;;;;13.75;11.25;;;;;;;11.10;100.00;99694.28;4989063;28;20049;-81
2022/11/16 02:34:35;;;;;;;12.07;10.70;;;;;;;11.09;100.00;99697.88;4988868;28;20368;-81
2022/11/16 02:37:04;;;;;;;13.15;11.45;;;;;;;11.09;100.00;99694.41;4990879;28;20084;-80
2022/11/16 02:39:33;;;;;;;10.57;9.57;;;;;;;11.07;100.00;99689.31;4988786;28;20030;-81
2022/11/16 02:42:01;;;;;;;10.20;8.93;;;;;;;11.05;100.00;99696.50;4988099;28;20095;-80
2022/11/16 02:44:31;;;;;;;8.57;7.82;;;;;;;11.04;100.00;99705.38;4991022;28;20072;-80
2022/11/16 02:47:02;;;;;;;10.68;8.48;;;;;;;11.02;100.00;99701.25;4989041;28;20045;-80
2022/11/16 02:49:41;;;;;;;10.13;7.95;;;;;;;11.00;100.00;99696.13;4988426;28;20458;-80
2022/11/16 02:52:09;;;;;;;10.15;8.07;;;;;;;11.00;100.00;99704.03;4988434;28;20022;-79
2022/11/16 02:54:35;;;;;;;10.50;7.72;;;;;;;11.00;100.00;99709.28;4989741;28;20050;-79
2022/11/16 02:57:03;;;;;;;9.00;7.78;;;;;;;10.99;100.00;99705.00;5004747;28;20058;-79
2022/11/16 02:59:41;;;;;;;7.93;7.13;;;;;;;10.99;100.00;99707.63;5005549;28;20034;-78
2022/11/16 03:02:30;;;;;;;8.32;6.97;;;;;;;10.95;100.00;99707.09;4987754;28;20030;-78
2022/11/16 03:05:04;;;;;;;6.82;6.18;;;;;;;10.91;100.00;99699.63;4970658;28;20045;-79
2022/11/16 03:07:44;;;;;;;7.05;6.35;;;;;;;10.92;100.00;99703.91;5000415;28;20061;-78
2022/11/16 03:10:10;;;;;;;8.30;6.13;;;;;;;10.89;100.00;99701.56;4988114;28;20018;-79
2022/11/16 03:12:37;;;;;;;6.30;5.70;;;;;;;10.87;100.00;99704.34;4989075;28;20109;-79
2022/11/16 03:15:10;;;;;;;6.00;5.43;;;;;;;10.86;100.00;99712.38;4989751;28;20030;-79
2022/11/16 03:17:40;;;;;;;6.93;5.28;;;;;;;10.81;100.00;99714.63;4989552;28;20391;-79
2022/11/16 03:20:16;;;;;;;5.75;4.90;;;;;;;10.78;100.00;99714.88;4989526;28;20023;-80
2022/11/16 03:22:50;;;;;;;6.15;4.70;;;;;;;10.76;100.00;99711.56;4989121;28;20361;-79
2022/11/16 03:25:19;;;;;;;5.03;4.20;;;;;;;10.71;100.00;99724.31;4989972;28;20068;-80
2022/11/16 03:27:53;;;;;;;6.28;3.90;;;;;;;10.73;100.00;99720.56;4989843;28;20058;-81
2022/11/16 03:30:21;;;;;;;5.70;3.60;;;;;;;10.67;100.00;99716.72;4989881;28;20394;-81
2022/11/16 03:33:00;;;;;;;6.40;3.40;;;;;;;10.63;100.00;99717.97;4982203;28;20033;-80
2022/11/16 03:35:32;;;;;;;6.18;3.03;;;;;;;10.58;100.00;99722.81;4988746;28;20080;-80
2022/11/16 03:38:01;;;;;;;7.38;3.03;;;;;;;10.53;100.00;99718.97;4987785;28;20221;-80
2022/11/16 03:40:31;;;;;;;3.67;2.30;;;;;;;10.49;100.00;99726.31;4989729;28;20022;-82
2022/11/16 03:42:59;;;;;;;3.40;2.13;;;;;;;10.41;100.00;99718.28;4987505;28;20479;-81
2022/11/16 03:45:25;;;;;;;4.75;2.42;;;;;;;10.40;100.00;99732.38;4988170;28;20049;-81
2022/11/16 03:47:51;;;;;;;3.35;2.08;;;;;;;10.34;100.00;99740.81;4988553;28;20034;-81
2022/11/16 03:50:16;;;;;;;2.47;2.20;;;;;;;10.38;100.00;99739.56;4987446;28;20032;-80
2022/11/16 03:52:42;;;;;;;2.78;2.25;;;;;;;10.32;100.00;99742.78;4985002;28;20030;-81
2022/11/16 03:55:07;;;;;;;4.38;2.25;;;;;;;10.28;100.00;99744.84;4989607;28;20077;-81
2022/11/16 03:57:33;;;;;;;3.75;2.58;;;;;;;10.27;100.00;99752.88;4989089;28;20480;-80
2022/11/16 03:59:58;;;;;;;4.68;2.90;;;;;;;10.23;100.00;99754.13;5003539;28;20407;-80
2022/11/16 04:02:24;;;;;;;3.35;2.83;;;;;;;10.21;100.00;99756.06;4989692;28;20105;-81
2022/11/16 04:24:28;;;;;;;7.57;3.20;;;;;;;10.02;100.00;99762.94;4988418;28;20041;-80
2022/11/16 04:29:41;;;;;;;8.88;3.45;;;;;;;10.01;100.00;99766.53;4973890;28;20038;-81
2022/11/16 04:37:47;;;;;;;8.63;3.40;;;;;;;9.93;100.00;99761.09;4993136;28;20407;-81
2022/11/16 04:40:16;;;;;;;5.35;3.00;;;;;;;9.86;100.00;99765.25;4992407;28;20414;-81
2022/11/16 04:42:41;;;;;;;6.82;3.28;;;;;;;9.84;100.00;99764.56;4990465;28;20026;-81
2022/11/16 04:47:52;;;;;;;6.20;3.55;;;;;;;9.78;100.00;99769.53;4989102;28;20041;-81
2022/11/16 04:50:18;;;;;;;4.82;3.17;;;;;;;9.79;100.00;99779.91;4993023;28;20018;-81
2022/11/16 04:52:44;;;;;;;8.13;3.50;;;;;;;9.77;100.00;99781.81;4991879;28;20068;-82
2022/11/16 04:55:11;;;;;;;8.02;3.65;;;;;;;9.73;100.00;99783.06;4991237;28;20129;-82
2022/11/16 04:57:37;;;;;;;6.70;3.60;;;;;;;9.71;100.00;99787.63;4990450;28;20026;-82
2022/11/16 05:00:04;;;;;;;7.40;3.90;;;;;;;9.69;100.00;99790.38;5007548;28;20040;-82
2022/11/16 05:02:33;;;;;;;7.40;3.60;;;;;;;9.67;100.00;99794.94;4992302;28;20016;-82
2022/11/16 05:04:58;;;;;;;7.00;4.07;;;;;;;9.63;100.00;99796.16;4974461;28;20030;-82
2022/11/16 05:07:23;;;;;;;9.40;3.90;;;;;;;9.62;100.00;99791.06;4979760;28;20081;-82
2022/11/16 05:09:49;;;;;;;6.13;3.72;;;;;;;9.59;100.00;99794.75;5006286;28;20775;-81
2022/11/16 05:12:20;;;;;;;6.70;3.63;;;;;;;9.58;100.00;99792.25;4992627;28;20430;-81
2022/11/16 05:14:45;;;;;;;11.15;3.92;;;;;;;9.55;100.00;99792.53;4989853;28;20372;-81
2022/11/16 05:17:12;;;;;;;8.05;3.67;;;;;;;9.52;100.00;99790.16;4984887;28;20030;-81
2022/11/16 05:22:22;;;;;;;10.18;3.80;;;;;;;9.41;100.00;99794.56;4992840;28;20053;-80
2022/11/16 05:24:47;;;;;;;13.05;4.40;;;;;;;9.41;100.00;99794.56;4989366;28;20052;-81
2022/11/16 05:27:15;;;;;;;10.52;3.70;;;;;;;9.37;100.00;99793.16;4990847;28;20029;-80
2022/11/16 05:29:40;;;;;;;5.70;3.60;;;;;;;9.36;100.00;99783.63;4991803;28;20446;-80
2022/11/16 05:32:07;;;;;;;10.35;3.85;;;;;;;9.28;100.00;99780.81;4991461;28;20058;-80
2022/11/16 05:34:33;;;;;;;8.45;3.95;;;;;;;9.25;100.00;99790.75;4990634;28;20038;-81
2022/11/16 05:36:58;;;;;;;7.22;3.97;;;;;;;9.15;100.00;99788.06;4992122;28;20023;-82
2022/11/16 05:39:24;;;;;;;10.98;3.58;;;;;;;9.10;100.00;99787.63;4991808;28;20391;-81
2022/11/16 05:41:50;;;;;;;7.00;3.55;;;;;;;9.03;100.00;99782.06;4990642;28;20367;-80
2022/11/16 05:44:16;;;;;;;5.60;3.90;;;;;;;9.05;100.00;99781.94;4991260;28;20092;-80
2022/11/16 05:46:42;;;;;;;9.07;4.35;;;;;;;8.99;100.00;99795.56;4992019;28;20535;-80
2022/11/16 05:49:09;;;;;;;9.73;4.43;;;;;;;8.94;100.00;99800.38;5007464;28;20022;-80
2022/11/16 05:51:35;;;;;;;10.20;4.53;;;;;;;8.93;100.00;99806.59;4973351;28;20019;-82
2022/11/16 05:54:02;;;;;;;11.32;4.53;;;;;;;8.91;100.00;99798.03;4991382;28;20040;-81
2022/11/16 05:56:28;;;;;;;7.80;4.93;;;;;;;8.89;100.00;99800.78;5007932;28;20129;-81
2022/11/16 05:58:54;;;;;;;9.60;4.85;;;;;;;8.82;100.00;99809.28;4989333;28;20041;-81
2022/11/16 06:01:19;;;;;;;8.55;5.00;;;;;;;8.79;100.00;99805.94;4988097;28;20391;-81
2022/11/16 06:03:45;;;;;;;10.32;5.32;;;;;;;8.82;100.00;99814.53;4991022;28;20022;-80
2022/11/16 06:06:10;;;;;;;9.35;5.25;;;;;;;8.68;100.00;99824.34;4991113;28;20498;-80
2022/11/16 06:08:35;;;;;;;8.57;5.30;;;;;;;8.69;100.00;99819.94;4989797;28;20475;-80
2022/11/16 06:11:06;;;;;;;9.25;5.40;;;;;;;8.59;100.00;99819.88;4991569;28;20022;-80
2022/11/16 06:13:35;;;;;;;12.27;5.78;;;;;;;8.60;100.00;99823.31;4990565;28;20074;-80
2022/11/16 06:16:01;;;;;;;9.52;5.70;;;;;;;8.54;100.00;99826.47;4988296;28;20041;-80
2022/11/16 06:18:27;;;;;;;11.35;6.65;;;;;;;8.55;100.00;99818.47;4990273;28;20033;-79
2022/11/16 06:20:52;;;;;;;9.88;6.20;;;;;;;8.54;100.00;99827.28;4989984;28;20027;-80
2022/11/16 06:23:18;;;;;;;10.20;6.10;;;;;;;8.49;100.00;99824.22;4989477;28;20085;-82
2022/11/16 06:25:43;;;;;;;13.40;6.30;;;;;;;8.51;100.00;99827.53;4990766;28;20022;-80
2022/11/16 06:28:09;;;;;;;9.68;5.72;;;;;;;8.48;100.00;99836.50;4989799;28;20104;-79
2022/11/16 06:30:37;;;;;;;11.27;6.35;;;;;;;8.37;100.00;99843.53;4989214;28;20034;-78
2022/11/16 06:33:03;;;;;;;12.73;5.82;;;;;;;8.38;100.00;99846.03;4989618;28;20029;-79
2022/11/16 06:35:28;;;;;;;10.82;6.25;;;;;;;8.39;100.00;99844.25;4990654;28;20034;-79
2022/11/16 06:37:54;;;;;;;14.27;6.72;;;;;;;8.34;100.00;99849.03;4990810;28;20057;-80
2022/11/16 06:40:19;;;;;;;12.15;5.63;;;;;;;8.30;100.00;99850.19;4990154;28;20057;-79
2022/11/16 06:42:45;;;;;;;15.77;5.40;;;;;;;8.27;100.00;99853.06;4989726;28;20072;-79
2022/11/16 06:45:10;;;;;;;10.63;5.53;;;;;;;8.23;100.00;99849.88;4987677;28;20534;-79
2022/11/16 06:47:35;;;;;;;9.52;5.45;;;;;;;8.22;100.00;99852.59;4998167;28;20038;-79
2022/11/16 06:50:01;;;;;;;12.52;5.90;;;;;;;8.18;100.00;99857.25;5002641;28;20014;-79
2022/11/16 06:52:27;;;;;;;12.52;5.18;;;;;;;8.20;100.00;99854.53;4990056;28;20034;-81
2022/11/16 06:54:52;;;;;;;11.98;5.78;;;;;;;8.15;100.00;99858.34;4989740;28;20072;-81
2022/11/16 06:57:18;;;;;;;12.00;5.43;;;;;;;8.14;100.00;99861.91;5005771;28;20177;-80
2022/11/16 06:59:43;;;;;;;11.52;5.35;;;;;;;8.10;100.00;99859.66;4988084;28;20053;-80
2022/11/16 07:02:12;;;;;;;8.43;5.18;;;;;;;8.07;100.00;99860.75;4987871;28;20033;-79
2022/11/16 07:04:37;;;;;;;12.88;5.57;;;;;;;8.06;100.00;99864.31;4990073;28;20033;-80
2022/11/16 07:07:03;;;;;;;10.43;5.10;;;;;;;8.03;100.00;99854.09;4987407;28;20026;-80
2022/11/16 07:09:28;;;;;;;10.23;5.00;;;;;;;8.02;100.00;99868.16;4988770;28;20100;-80
2022/11/16 07:11:54;;;;;;;11.23;5.53;;;;;;;8.02;100.00;99868.16;4989672;28;20101;-79
2022/11/16 07:14:19;;;;;;;12.07;5.38;;;;;;;8.02;100.00;99872.56;4989516;28;20038;-79
2022/11/16 07:16:44;;;;;;;12.02;5.57;;;;;;;8.02;100.00;99872.56;4988898;28;20065;-79
2022/11/16 07:19:10;;;;;;;11.63;5.45;;;;;;;7.99;100.00;99873.59;4989697;28;20026;-79
2022/11/16 07:21:38;;;;;;;12.57;5.45;;;;;;;7.99;100.00;99884.06;4986837;28;20030;-79
2022/11/16 07:24:04;;;;;;;13.13;5.32;;;;;;;7.99;100.00;99883.25;4986940;28;20058;-79
2022/11/16 07:26:31;;;;;;;16.33;5.70;;;;;;;7.99;100.00;99886.69;4985620;28;20061;-79
2022/11/16 07:28:57;;;;;;;12.88;6.10;;;;;;;7.97;100.00;99885.97;4987690;28;20058;-79
2022/11/16 07:31:24;;;;;;;16.25;7.55;;;;;;;7.97;100.00;99885.16;4985665;28;20065;-79
2022/11/16 07:33:50;;;;;;;15.95;7.93;;;;;;;7.98;100.00;99892.88;4988092;28;20041;-79
2022/11/16 07:36:16;;;;;;;18.33;9.30;;;;;;;7.97;100.00;99885.97;4993348;28;20069;-79
2022/11/16 07:38:41;;;;;;;14.20;9.18;;;;;;;8.00;100.00;99890.16;4988105;28;20049;-81
2022/11/16 07:41:10;;;;;;;17.05;9.93;;;;;;;8.03;100.00;99895.16;4988457;28;20026;-79
2022/11/16 07:43:36;;;;;;;20.15;11.15;;;;;;;8.02;100.00;99893.50;4985395;28;20045;-80
2022/11/16 07:46:27;;;;;;;22.77;11.48;;;;;;;8.07;100.00;99902.66;4989981;28;20026;-79
2022/11/16 07:48:52;;;;;;;20.17;10.70;;;;;;;8.07;100.00;99905.28;4986332;28;20588;-79
2022/11/16 07:51:18;;;;;;;19.85;11.00;;;;;;;8.07;100.00;99907.06;4989715;28;20034;-78
2022/11/16 07:53:44;;;;;;;21.25;11.02;;;;;;;8.09;100.00;99908.63;4989675;28;20441;-78
2022/11/16 07:56:10;;;;;;;21.60;11.18;;;;;;;8.14;100.00;99911.69;4991620;28;20038;-78
2022/11/16 07:58:37;;;;;;;19.55;10.90;;;;;;;8.18;100.00;99910.50;4990053;28;20030;-78
2022/11/16 08:01:04;;;;;;;18.00;9.82;;;;;;;8.20;100.00;99917.41;4981227;28;20031;-78
2022/11/16 08:03:35;;;;;;;19.92;10.00;;;;;;;8.25;100.00;99917.88;4974239;28;20023;-78
2022/11/16 08:06:04;;;;;;;19.70;8.85;;;;;;;8.23;100.00;99911.91;4989892;28;20084;-78
2022/11/16 08:08:29;;;;;;;18.45;8.60;;;;;;;8.30;100.00;99926.19;5009667;28;20550;-78
2022/11/16 08:11:02;;;;;;;34.15;8.77;;;;;;;8.31;100.00;99925.25;4993792;28;20098;-79
2022/11/16 08:13:30;;;;;;;18.65;7.35;;;;;;;8.33;100.00;99918.09;4993717;28;20038;-77
2022/11/16 08:16:09;;;;;;;14.90;7.25;;;;;;;8.37;100.00;99924.78;4992613;28;20026;-77
2022/11/16 08:18:35;;;;;;;18.75;6.35;;;;;;;8.40;100.00;99924.53;4992392;28;20022;-80
2022/11/16 08:21:01;;;;;;;16.88;5.70;;;;;;;8.42;100.00;99917.41;4991941;28;20037;-79
2022/11/16 08:23:33;;;;;;;16.90;5.93;;;;;;;8.42;100.00;99925.28;4992941;28;20105;-79
2022/11/16 08:26:03;;;;;;;16.02;5.20;;;;;;;8.45;100.00;99923.25;4993114;28;20030;-80
2022/11/16 08:28:29;;;;;;;17.83;5.10;;;;;;;8.48;100.00;99916.91;4993005;28;20030;-85
2022/11/16 08:30:55;;;;;;;14.48;4.80;;;;;;;8.50;100.00;99925.50;4993418;28;20084;-79
2022/11/16 08:33:22;;;;;;;15.82;4.97;;;;;;;8.55;100.00;99928.56;4992017;28;20068;-80
2022/11/16 08:35:48;;;;;;;15.20;4.47;;;;;;;8.60;100.00;99920.34;4992866;28;20438;-80
2022/11/16 08:38:14;;;;;;;16.15;4.88;;;;;;;8.60;100.00;99920.34;4993791;28;20037;-80
2022/11/16 08:40:40;;;;;;;12.55;4.88;;;;;;;8.62;100.00;99924.50;4992367;28;20026;-80
2022/11/16 08:43:05;;;;;;;15.88;4.93;;;;;;;8.66;100.00;99915.44;4993774;28;20030;-80
2022/11/16 08:45:33;;;;;;;13.68;4.68;;;;;;;8.68;100.00;99924.00;4988678;28;20026;-80
2022/11/16 08:47:59;;;;;;;12.63;4.28;;;;;;;8.70;100.00;99922.09;4972393;28;20069;-80
2022/11/16 08:50:25;;;;;;;19.20;4.65;;;;;;;8.75;100.00;99933.03;4982977;28;20023;-80
2022/11/16 08:52:50;;;;;;;15.10;4.50;;;;;;;8.73;100.00;99928.88;4992663;28;20842;-80
2022/11/16 08:55:17;;;;;;;15.13;4.35;;;;;;;8.74;100.00;99928.75;4992638;28;20072;-80
2022/11/16 08:57:43;;;;;;;12.32;3.75;;;;;;;8.77;100.00;99935.53;4992557;28;20378;-80
2022/11/16 09:00:10;;;;;;;12.23;3.97;;;;;;;8.81;100.00;99930.91;5005093;28;20038;-80
2022/11/16 09:02:35;;;;;;;15.50;4.25;;;;;;;8.80;100.00;99930.03;4993843;28;20022;-80
2022/11/16 09:05:01;;;;;;;29.20;4.80;;;;;;;8.83;100.00;99932.44;4995402;28;20028;-80
2022/11/16 09:07:26;;;;;;;17.95;4.47;;;;;;;8.90;100.00;99943.25;5004504;28;20099;-80
2022/11/16 09:09:52;;;;;;;16.55;4.20;;;;;;;8.95;100.00;99935.84;4991178;28;20130;-85
2022/11/16 09:12:17;;;;;;;15.60;4.10;;;;;;;8.97;100.00;99934.75;4991219;28;20537;-85
2022/11/16 09:14:43;;;;;;;15.90;3.80;;;;;;;9.00;100.00;99938.91;4988826;28;20061;-80
2022/11/16 09:17:09;;;;;;;11.48;3.58;;;;;;;9.05;100.00;99937.56;4983199;28;20038;-82
2022/11/16 09:19:34;;;;;;;16.73;3.95;;;;;;;9.09;100.00;99949.47;4989454;28;20497;-81
2022/11/16 09:22:00;;;;;;;12.93;3.85;;;;;;;9.10;100.00;99935.41;4991814;28;20030;-82
2022/11/16 09:24:25;;;;;;;14.75;3.78;;;;;;;9.13;100.00;99942.19;4991707;28;20034;-81
2022/11/16 09:26:51;;;;;;;15.15;3.83;;;;;;;9.18;100.00;99945.25;4992102;28;20395;-81
2022/11/16 09:29:16;;;;;;;12.65;3.83;;;;;;;9.21;100.00;99945.03;4992071;28;20026;-81
2022/11/16 09:31:42;;;;;;;13.57;3.35;;;;;;;9.25;100.00;99948.25;5005311;28;20084;-81
2022/11/16 09:34:07;;;;;;;13.45;3.30;;;;;;;9.28;100.00;99954.06;4991930;28;20509;-81
2022/11/16 09:36:33;;;;;;;12.98;3.90;;;;;;;9.36;100.00;99951.63;5005460;28;20410;-81
2022/11/16 09:38:59;;;;;;;15.45;3.28;;;;;;;9.36;100.00;99950.78;4973863;28;20023;-81
2022/11/16 09:42:02;;;;;;;11.10;2.72;;;;;;;9.35;100.00;99944.72;4987903;28;20026;-81
2022/11/16 09:44:42;;;;;;;12.15;2.70;;;;;;;9.38;100.00;99949.72;4912832;29;20044;-81
2022/11/16 09:47:15;;;;;;;12.48;3.15;;;;;;;9.47;100.00;99942.03;4966086;28;20074;-81
2022/11/16 09:49:46;;;;;;;13.30;3.05;;;;;;;9.53;100.00;99946.75;4972682;28;20396;-81
2022/11/16 09:52:23;;;;;;;13.77;3.47;;;;;;;9.55;100.00;99960.59;4978102;28;20105;-81
2022/11/16 09:54:51;;;;;;;14.40;3.55;;;;;;;9.56;100.00;99957.00;4974849;28;20454;-81
2022/11/16 09:57:24;;;;;;;13.23;3.00;;;;;;;9.56;100.00;99952.56;4980369;28;20049;-81
2022/11/16 09:59:55;;;;;;;10.20;2.90;;;;;;;9.62;100.00;99946.84;4986170;28;20026;-81
2022/11/16 10:02:33;;;;;;;12.43;3.27;;;;;;;9.64;100.00;99949.34;4997844;28;20427;-81
2022/11/16 10:05:03;;;;;;;13.80;2.60;;;;;;;9.68;100.00;99958.63;4990561;28;20479;-82
2022/11/16 10:07:43;;;;;;;11.25;2.85;;;;;;;9.74;100.00;99955.47;4991113;28;20030;-82
2022/11/16 10:10:20;;;;;;;9.45;2.53;;;;;;;9.81;100.00;99947.88;4992232;28;20034;-82
2022/11/16 10:13:08;;;;;;;13.07;2.42;;;;;;;9.84;100.00;99953.72;5006065;28;20538;-82
2022/11/16 10:15:48;;;;;;;9.77;2.80;;;;;;;9.89;100.00;99953.31;4989719;28;20030;-81
2022/11/16 10:18:46;;;;;;;10.88;2.53;;;;;;;9.92;100.00;99943.38;4991018;28;20019;-81
2022/11/16 10:21:33;;;;;;;10.63;2.40;;;;;;;9.97;100.00;99945.59;4991543;28;20026;-81
2022/11/16 10:24:30;;;;;;;12.23;2.95;;;;;;;10.00;100.00;99940.91;4991440;28;20028;-81
2022/11/16 10:27:11;;;;;;;9.70;2.90;;;;;;;10.04;100.00;99947.59;5004068;28;20022;-82
2022/11/16 10:29:55;;;;;;;9.32;2.65;;;;;;;10.07;100.00;99948.28;4987724;28;20031;-81
2022/11/16 10:32:27;;;;;;;12.05;2.75;;;;;;;10.07;100.00;99940.41;4986694;28;20026;-80
2022/11/16 10:34:59;;;;;;;9.93;2.77;;;;;;;10.15;100.00;99943.19;4986727;28;20304;-78
2022/11/16 10:37:32;;;;;;;12.55;2.92;;;;;;;10.19;100.00;99944.59;4991367;28;20026;-78
2022/11/16 10:39:58;;;;;;;10.70;2.42;;;;;;;10.24;100.00;99939.81;4990403;28;20041;-78
2022/11/16 10:42:35;;;;;;;11.63;2.65;;;;;;;10.30;100.00;99944.53;4990078;28;20097;-78
2022/11/16 10:45:10;;;;;;;8.23;2.53;;;;;;;10.35;99.90;99952.84;4988385;28;20081;-78
2022/11/16 10:47:45;;;;;;;8.38;2.22;;;;;;;10.41;99.50;99948.88;4988797;28;20050;-78
2022/11/16 10:50:36;;;;;;;10.35;2.55;;;;;;;10.51;98.15;99945.28;4987164;28;20077;-79
2022/11/16 10:53:02;;;;;;;13.00;8.15;;;;;;;10.59;99.46;99936.72;4983333;28;20093;-79
2022/11/16 10:55:28;;;;;;;9.98;3.50;;;;;;;10.67;98.45;99927.16;4990485;28;20058;-79
2022/11/16 10:57:58;;;;;;;6.75;2.40;;;;;;;10.68;94.95;99946.41;4990684;28;20034;-79
2022/11/16 11:00:50;;;;;;;13.40;6.45;;;;;;;10.70;95.94;99944.47;4989590;28;20034;-80
2022/11/16 11:03:32;;;;;;;13.18;4.22;;;;;;;10.78;96.10;99943.78;4990969;28;20030;-79
2022/11/16 11:05:57;;;;;;;9.30;2.50;;;;;;;10.82;94.03;99939.94;5004261;28;20042;-79
2022/11/16 11:08:25;;;;;;;11.02;2.45;;;;;;;10.98;95.42;99940.22;4988778;28;20033;-79
2022/11/16 11:12:36;;;;;;;9.15;2.55;;;;;;;11.05;94.67;99932.59;4990488;28;20080;-79
2022/11/16 11:14:02;;;;;;;9.77;2.08;;;;;;;11.13;93.72;99930.91;4989975;28;20415;-79
2022/11/16 11:16:28;;;;;;;12.32;5.15;;;;;;;11.13;90.91;99927.47;4990298;28;20062;-79
2022/11/16 11:18:53;;;;;;;11.75;5.45;;;;;;;11.11;90.31;99932.88;4989875;28;20140;-78
2022/11/16 11:21:24;;;;;;;8.35;3.00;;;;;;;11.09;90.86;99940.06;4986697;28;20027;-78
2022/11/16 11:23:55;;;;;;;9.93;2.05;;;;;;;11.09;91.35;99932.16;4986218;28;20034;-78
2022/11/16 11:26:29;;;;;;;11.20;4.33;;;;;;;11.13;91.36;99925.66;4986439;28;20131;-77
2022/11/16 11:28:55;;;;;;;6.70;2.28;;;;;;;11.17;91.45;99921.75;4981733;28;20391;-78
2022/11/16 11:31:45;;;;;;;9.18;2.55;;;;;;;11.14;90.35;99919.41;5007935;28;20026;-77
2022/11/16 11:34:26;;;;;;;8.80;1.88;;;;;;;11.17;91.36;99915.66;4976940;28;20070;-78
2022/11/16 11:36:59;;;;;;;6.85;1.98;;;;;;;11.12;88.81;99923.16;5003647;28;20022;-78
2022/11/16 11:39:30;;;;;;;11.77;2.38;;;;;;;11.06;90.13;99919.28;4990088;28;20030;-77
2022/11/16 11:42:11;;;;;;;8.00;2.30;;;;;;;11.10;91.85;99912.78;4989622;28;20054;-77
2022/11/16 11:44:46;;;;;;;12.23;3.38;;;;;;;11.02;90.53;99915.28;4985647;28;20026;-77
2022/11/16 11:47:23;;;;;;;6.18;2.10;;;;;;;11.00;90.93;99909.31;4988933;28;20022;-81
2022/11/16 11:49:53;;;;;;;8.57;2.63;;;;;;;10.91;90.70;99907.53;4987392;28;20030;-81
2022/11/16 11:52:26;;;;;;;7.03;1.90;;;;;;;10.94;90.23;99904.63;4989818;28;20111;-80
2022/11/16 11:54:54;;;;;;;10.75;2.15;;;;;;;11.15;90.31;99896.56;5002361;28;20422;-80
2022/11/16 11:57:22;;;;;;;8.43;2.00;;;;;;;11.22;88.88;99887.16;4989603;28;20479;-81
2022/11/16 11:59:51;;;;;;;11.30;2.30;;;;;;;11.29;90.41;99886.44;4984650;28;20041;-81
2022/11/16 12:02:53;;;;;;;10.85;2.10;;;;;;;11.46;90.61;99884.03;4969725;28;20041;-78
2022/11/16 12:05:56;;;;;;;7.35;2.17;;;;;;;11.57;90.01;99886.47;4970901;28;20034;-81
2022/11/16 12:08:46;;;;;;;8.55;2.20;;;;;;;11.54;87.35;99881.50;4978353;28;20387;-78
2022/11/16 12:11:42;;;;;;;10.43;2.30;;;;;;;11.54;87.71;99876.22;4989570;28;20033;-78
2022/11/16 12:14:17;;;;;;;76.53;47.85;;;;;;;11.56;88.33;99869.84;5001042;28;20633;-77